sensor_id;sensor_type;location;lat;lon;timestamp;temperature;humidity
64396;DHT22;50717;53.360;6.290;2024-03-25T00:00:12;8.20;1.00
64396;DHT22;50717;53.360;6.290;2024-03-25T00:02:39;8.10;1.00
64396;DHT22;50717;53.360;6.290;2024-03-25T00:05:06;8.40;1.00
64396;DHT22;50717;53.360;6.290;2024-03-25T00:07:36;8.00;1.00
64396;DHT22;50717;53.360;6.290;2024-03-25T00:10:02;8.40;1.00
64396;DHT22;50717;53.360;6.290;2024-03-25T00:12:28;8.30;1.00
64396;DHT22;50717;53.360;6.290;2024-03-25T00:14:54;8.40;1.00
64396;DHT22;50717;53.360;6.290;2024-03-25T00:17:20;8.60;1.00
64396;DHT22;50717;53.360;6.290;2024-03-25T00:19:46;8.50;1.00
64396;DHT22;50717;53.360;6.290;2024-03-25T00:22:16;9.40;1.00
64396;DHT22;50717;53.360;6.290;2024-03-25T00:24:43;8.60;1.00
64396;DHT22;50717;53.360;6.290;2024-03-25T00:27:08;9.30;1.00
64396;DHT22;50717;53.360;6.290;2024-03-25T00:29:34;8.70;1.00
64396;DHT22;50717;53.360;6.290;2024-03-25T00:31:59;8.60;1.00
64396;DHT22;50717;53.360;6.290;2024-03-25T00:34:25;8.10;1.00
64396;DHT22;50717;53.360;6.290;2024-03-25T00:36:51;9.90;1.00
64396;DHT22;50717;53.360;6.290;2024-03-25T00:39:16;8.40;1.00
64396;DHT22;50717;53.360;6.290;2024-03-25T00:41:42;8.70;1.00
64396;DHT22;50717;53.360;6.290;2024-03-25T00:44:08;8.50;1.00
64396;DHT22;50717;53.360;6.290;2024-03-25T00:46:33;8.30;1.00
64396;DHT22;50717;53.360;6.290;2024-03-25T00:48:59;8.10;1.00
64396;DHT22;50717;53.360;6.290;2024-03-25T00:51:25;8.90;1.00
64396;DHT22;50717;53.360;6.290;2024-03-25T00:53:50;8.20;1.00
64396;DHT22;50717;53.360;6.290;2024-03-25T00:56:16;8.50;1.00
64396;DHT22;50717;53.360;6.290;2024-03-25T00:58:42;8.10;1.00
64396;DHT22;50717;53.360;6.290;2024-03-25T01:01:07;8.70;1.00
64396;DHT22;50717;53.360;6.290;2024-03-25T01:03:33;9.80;1.00
64396;DHT22;50717;53.360;6.290;2024-03-25T01:05:59;8.70;1.00
64396;DHT22;50717;53.360;6.290;2024-03-25T01:08:25;8.30;99.90
64396;DHT22;50717;53.360;6.290;2024-03-25T01:10:50;9.20;99.90
64396;DHT22;50717;53.360;6.290;2024-03-25T01:13:16;8.70;99.90
64396;DHT22;50717;53.360;6.290;2024-03-25T01:15:42;8.60;99.90
64396;DHT22;50717;53.360;6.290;2024-03-25T01:18:07;8.90;99.90
64396;DHT22;50717;53.360;6.290;2024-03-25T01:20:33;9.30;99.90
64396;DHT22;50717;53.360;6.290;2024-03-25T01:22:59;8.60;99.90
64396;DHT22;50717;53.360;6.290;2024-03-25T01:25:25;8.60;99.90
64396;DHT22;50717;53.360;6.290;2024-03-25T01:27:51;8.60;99.90
64396;DHT22;50717;53.360;6.290;2024-03-25T01:30:17;8.60;99.90
64396;DHT22;50717;53.360;6.290;2024-03-25T01:32:44;8.10;99.90
64396;DHT22;50717;53.360;6.290;2024-03-25T01:35:12;8.40;99.90
64396;DHT22;50717;53.360;6.290;2024-03-25T01:37:37;8.30;1.00
64396;DHT22;50717;53.360;6.290;2024-03-25T01:40:04;8.50;1.00
64396;DHT22;50717;53.360;6.290;2024-03-25T01:42:30;8.40;1.00
64396;DHT22;50717;53.360;6.290;2024-03-25T01:44:56;8.30;1.00
64396;DHT22;50717;53.360;6.290;2024-03-25T01:47:22;8.40;1.00
64396;DHT22;50717;53.360;6.290;2024-03-25T01:49:48;8.00;99.90
64396;DHT22;50717;53.360;6.290;2024-03-25T01:52:15;8.10;99.90
64396;DHT22;50717;53.360;6.290;2024-03-25T01:54:41;8.50;99.90
64396;DHT22;50717;53.360;6.290;2024-03-25T01:57:07;8.00;99.90
64396;DHT22;50717;53.360;6.290;2024-03-25T01:59:35;8.20;99.90
64396;DHT22;50717;53.360;6.290;2024-03-25T02:02:01;8.20;99.90
64396;DHT22;50717;53.360;6.290;2024-03-25T02:04:27;8.40;99.90
64396;DHT22;50717;53.360;6.290;2024-03-25T02:06:53;8.50;99.90
64396;DHT22;50717;53.360;6.290;2024-03-25T02:09:22;8.90;99.90
64396;DHT22;50717;53.360;6.290;2024-03-25T02:11:48;8.60;99.90
64396;DHT22;50717;53.360;6.290;2024-03-25T02:14:14;9.60;99.90
64396;DHT22;50717;53.360;6.290;2024-03-25T02:16:40;9.20;99.90
64396;DHT22;50717;53.360;6.290;2024-03-25T02:19:07;8.80;99.90
64396;DHT22;50717;53.360;6.290;2024-03-25T02:21:33;8.50;99.90
64396;DHT22;50717;53.360;6.290;2024-03-25T02:23:59;8.00;99.90
64396;DHT22;50717;53.360;6.290;2024-03-25T02:26:27;7.80;99.90
64396;DHT22;50717;53.360;6.290;2024-03-25T02:28:53;8.80;99.90
64396;DHT22;50717;53.360;6.290;2024-03-25T02:31:19;7.60;99.90
64396;DHT22;50717;53.360;6.290;2024-03-25T02:33:44;7.50;99.90
64396;DHT22;50717;53.360;6.290;2024-03-25T02:36:10;7.40;99.90
64396;DHT22;50717;53.360;6.290;2024-03-25T02:38:36;7.60;99.90
64396;DHT22;50717;53.360;6.290;2024-03-25T02:41:02;7.90;99.90
64396;DHT22;50717;53.360;6.290;2024-03-25T02:43:28;7.30;99.90
64396;DHT22;50717;53.360;6.290;2024-03-25T02:45:54;7.40;99.90
64396;DHT22;50717;53.360;6.290;2024-03-25T02:48:19;8.00;1.00
64396;DHT22;50717;53.360;6.290;2024-03-25T02:50:45;7.80;99.90
64396;DHT22;50717;53.360;6.290;2024-03-25T02:53:11;7.80;99.90
64396;DHT22;50717;53.360;6.290;2024-03-25T02:55:36;8.70;99.90
64396;DHT22;50717;53.360;6.290;2024-03-25T02:58:02;8.00;99.90
64396;DHT22;50717;53.360;6.290;2024-03-25T03:00:28;7.70;1.00
64396;DHT22;50717;53.360;6.290;2024-03-25T03:02:53;8.90;1.00
64396;DHT22;50717;53.360;6.290;2024-03-25T03:05:19;8.80;1.00
64396;DHT22;50717;53.360;6.290;2024-03-25T03:07:45;8.20;99.90
64396;DHT22;50717;53.360;6.290;2024-03-25T03:10:10;7.80;99.90
64396;DHT22;50717;53.360;6.290;2024-03-25T03:12:36;8.10;99.90
64396;DHT22;50717;53.360;6.290;2024-03-25T03:15:02;7.60;99.90
64396;DHT22;50717;53.360;6.290;2024-03-25T03:17:28;7.60;99.90
64396;DHT22;50717;53.360;6.290;2024-03-25T03:19:53;8.30;99.90
64396;DHT22;50717;53.360;6.290;2024-03-25T03:22:19;7.30;99.90
64396;DHT22;50717;53.360;6.290;2024-03-25T03:24:44;7.70;99.90
64396;DHT22;50717;53.360;6.290;2024-03-25T03:27:10;7.20;99.90
64396;DHT22;50717;53.360;6.290;2024-03-25T03:29:36;7.80;99.90
64396;DHT22;50717;53.360;6.290;2024-03-25T03:32:01;7.90;99.90
64396;DHT22;50717;53.360;6.290;2024-03-25T03:34:27;7.60;99.90
64396;DHT22;50717;53.360;6.290;2024-03-25T03:36:53;7.70;99.90
64396;DHT22;50717;53.360;6.290;2024-03-25T03:39:18;8.00;99.90
64396;DHT22;50717;53.360;6.290;2024-03-25T03:41:44;7.50;99.90
64396;DHT22;50717;53.360;6.290;2024-03-25T03:44:10;7.60;99.90
64396;DHT22;50717;53.360;6.290;2024-03-25T03:46:35;8.00;99.90
64396;DHT22;50717;53.360;6.290;2024-03-25T03:49:01;7.90;99.90
64396;DHT22;50717;53.360;6.290;2024-03-25T03:51:27;7.90;99.90
64396;DHT22;50717;53.360;6.290;2024-03-25T03:53:52;7.80;1.00
64396;DHT22;50717;53.360;6.290;2024-03-25T03:56:18;8.10;99.90
64396;DHT22;50717;53.360;6.290;2024-03-25T03:58:44;7.90;1.00
64396;DHT22;50717;53.360;6.290;2024-03-25T04:01:17;7.70;1.00
64396;DHT22;50717;53.360;6.290;2024-03-25T04:03:43;7.80;1.00
64396;DHT22;50717;53.360;6.290;2024-03-25T04:06:12;8.10;1.00
64396;DHT22;50717;53.360;6.290;2024-03-25T04:08:39;7.50;1.00
64396;DHT22;50717;53.360;6.290;2024-03-25T04:11:06;8.70;1.00
64396;DHT22;50717;53.360;6.290;2024-03-25T04:13:35;7.80;1.00
64396;DHT22;50717;53.360;6.290;2024-03-25T04:16:05;8.00;1.00
64396;DHT22;50717;53.360;6.290;2024-03-25T04:18:32;7.90;1.00
64396;DHT22;50717;53.360;6.290;2024-03-25T04:20:58;9.10;1.00
64396;DHT22;50717;53.360;6.290;2024-03-25T04:23:24;7.60;1.00
64396;DHT22;50717;53.360;6.290;2024-03-25T04:25:50;7.40;1.00
64396;DHT22;50717;53.360;6.290;2024-03-25T04:28:16;7.60;1.00
64396;DHT22;50717;53.360;6.290;2024-03-25T04:30:41;7.70;1.00
64396;DHT22;50717;53.360;6.290;2024-03-25T04:33:08;8.80;1.00
64396;DHT22;50717;53.360;6.290;2024-03-25T04:35:34;7.90;1.00
64396;DHT22;50717;53.360;6.290;2024-03-25T04:37:59;7.60;1.00
64396;DHT22;50717;53.360;6.290;2024-03-25T04:40:25;7.40;1.00
64396;DHT22;50717;53.360;6.290;2024-03-25T04:42:51;7.40;1.00
64396;DHT22;50717;53.360;6.290;2024-03-25T04:45:16;7.30;1.00
64396;DHT22;50717;53.360;6.290;2024-03-25T04:47:42;7.20;1.00
64396;DHT22;50717;53.360;6.290;2024-03-25T04:50:08;6.80;1.00
64396;DHT22;50717;53.360;6.290;2024-03-25T04:52:34;7.10;1.00
64396;DHT22;50717;53.360;6.290;2024-03-25T04:55:00;7.00;1.00
64396;DHT22;50717;53.360;6.290;2024-03-25T04:57:26;6.70;1.00
64396;DHT22;50717;53.360;6.290;2024-03-25T04:59:51;6.80;1.00
64396;DHT22;50717;53.360;6.290;2024-03-25T05:02:17;6.80;1.00
64396;DHT22;50717;53.360;6.290;2024-03-25T05:04:43;6.70;1.00
64396;DHT22;50717;53.360;6.290;2024-03-25T05:07:08;7.00;1.00
64396;DHT22;50717;53.360;6.290;2024-03-25T05:09:34;8.20;1.00
64396;DHT22;50717;53.360;6.290;2024-03-25T05:12:00;6.80;1.00
64396;DHT22;50717;53.360;6.290;2024-03-25T05:14:25;6.50;1.00
64396;DHT22;50717;53.360;6.290;2024-03-25T05:16:51;6.60;1.00
64396;DHT22;50717;53.360;6.290;2024-03-25T05:19:18;6.60;8.30
64396;DHT22;50717;53.360;6.290;2024-03-25T05:21:44;6.40;10.10
64396;DHT22;50717;53.360;6.290;2024-03-25T05:24:10;6.20;15.50
64396;DHT22;50717;53.360;6.290;2024-03-25T05:26:35;6.10;13.00
64396;DHT22;50717;53.360;6.290;2024-03-25T05:29:01;6.40;22.50
64396;DHT22;50717;53.360;6.290;2024-03-25T05:31:28;6.20;23.80
64396;DHT22;50717;53.360;6.290;2024-03-25T05:33:53;6.40;26.70
64396;DHT22;50717;53.360;6.290;2024-03-25T05:36:19;6.30;34.90
64396;DHT22;50717;53.360;6.290;2024-03-25T05:41:12;6.30;38.90
64396;DHT22;50717;53.360;6.290;2024-03-25T05:43:38;6.90;45.00
64396;DHT22;50717;53.360;6.290;2024-03-25T05:46:04;6.20;38.00
64396;DHT22;50717;53.360;6.290;2024-03-25T05:48:30;6.40;39.00
64396;DHT22;50717;53.360;6.290;2024-03-25T05:51:05;6.20;36.00
64396;DHT22;50717;53.360;6.290;2024-03-25T05:53:31;6.50;38.20
64396;DHT22;50717;53.360;6.290;2024-03-25T05:55:57;6.40;44.40
64396;DHT22;50717;53.360;6.290;2024-03-25T05:58:25;6.40;51.20
64396;DHT22;50717;53.360;6.290;2024-03-25T06:00:51;6.70;49.40
64396;DHT22;50717;53.360;6.290;2024-03-25T06:03:16;6.40;58.20
64396;DHT22;50717;53.360;6.290;2024-03-25T06:05:43;6.40;53.60
64396;DHT22;50717;53.360;6.290;2024-03-25T06:08:09;6.80;51.00
64396;DHT22;50717;53.360;6.290;2024-03-25T06:10:43;6.40;43.40
64396;DHT22;50717;53.360;6.290;2024-03-25T06:13:09;6.60;39.90
64396;DHT22;50717;53.360;6.290;2024-03-25T06:15:35;6.70;36.90
64396;DHT22;50717;53.360;6.290;2024-03-25T06:18:01;6.80;34.50
64396;DHT22;50717;53.360;6.290;2024-03-25T06:20:26;6.90;29.80
64396;DHT22;50717;53.360;6.290;2024-03-25T06:22:52;6.80;30.10
64396;DHT22;50717;53.360;6.290;2024-03-25T06:25:18;7.20;30.00
64396;DHT22;50717;53.360;6.290;2024-03-25T06:27:43;6.90;29.80
64396;DHT22;50717;53.360;6.290;2024-03-25T06:30:10;7.10;27.60
64396;DHT22;50717;53.360;6.290;2024-03-25T06:32:54;7.20;22.00
64396;DHT22;50717;53.360;6.290;2024-03-25T06:35:39;7.10;24.20
64396;DHT22;50717;53.360;6.290;2024-03-25T06:38:04;7.90;25.30
64396;DHT22;50717;53.360;6.290;2024-03-25T06:40:30;7.10;25.10
64396;DHT22;50717;53.360;6.290;2024-03-25T06:42:56;7.10;27.50
64396;DHT22;50717;53.360;6.290;2024-03-25T06:45:22;7.20;28.30
64396;DHT22;50717;53.360;6.290;2024-03-25T06:47:48;7.20;28.10
64396;DHT22;50717;53.360;6.290;2024-03-25T06:50:14;6.90;30.10
64396;DHT22;50717;53.360;6.290;2024-03-25T06:52:40;7.30;29.70
64396;DHT22;50717;53.360;6.290;2024-03-25T06:55:06;7.80;38.10
64396;DHT22;50717;53.360;6.290;2024-03-25T06:57:33;6.90;36.30
64396;DHT22;50717;53.360;6.290;2024-03-25T06:59:59;6.90;36.50
64396;DHT22;50717;53.360;6.290;2024-03-25T07:07:59;6.80;34.20
64396;DHT22;50717;53.360;6.290;2024-03-25T07:10:24;6.80;31.60
64396;DHT22;50717;53.360;6.290;2024-03-25T07:12:50;6.90;30.40
64396;DHT22;50717;53.360;6.290;2024-03-25T07:15:15;6.80;29.00
64396;DHT22;50717;53.360;6.290;2024-03-25T07:17:41;7.00;25.50
64396;DHT22;50717;53.360;6.290;2024-03-25T07:20:07;7.30;27.10
64396;DHT22;50717;53.360;6.290;2024-03-25T07:22:34;7.20;24.90
64396;DHT22;50717;53.360;6.290;2024-03-25T07:24:59;7.10;23.80
64396;DHT22;50717;53.360;6.290;2024-03-25T07:27:25;7.10;21.80
64396;DHT22;50717;53.360;6.290;2024-03-25T07:29:50;7.30;25.50
64396;DHT22;50717;53.360;6.290;2024-03-25T07:32:16;7.40;26.30
64396;DHT22;50717;53.360;6.290;2024-03-25T07:34:42;7.60;24.60
64396;DHT22;50717;53.360;6.290;2024-03-25T07:37:08;7.90;23.50
64396;DHT22;50717;53.360;6.290;2024-03-25T07:39:33;7.80;12.20
64396;DHT22;50717;53.360;6.290;2024-03-25T07:41:59;7.50;2.50
64396;DHT22;50717;53.360;6.290;2024-03-25T07:44:24;8.10;1.30
64396;DHT22;50717;53.360;6.290;2024-03-25T07:46:50;7.70;3.20
64396;DHT22;50717;53.360;6.290;2024-03-25T07:49:16;8.30;2.30
64396;DHT22;50717;53.360;6.290;2024-03-25T07:51:41;8.10;1.00
64396;DHT22;50717;53.360;6.290;2024-03-25T07:54:07;8.00;1.00
64396;DHT22;50717;53.360;6.290;2024-03-25T07:56:35;8.40;6.00
64396;DHT22;50717;53.360;6.290;2024-03-25T07:59:03;8.60;7.10
64396;DHT22;50717;53.360;6.290;2024-03-25T08:01:29;8.30;1.00
64396;DHT22;50717;53.360;6.290;2024-03-25T08:03:55;8.20;1.00
64396;DHT22;50717;53.360;6.290;2024-03-25T08:06:20;8.10;1.00
64396;DHT22;50717;53.360;6.290;2024-03-25T08:08:47;8.40;1.00
64396;DHT22;50717;53.360;6.290;2024-03-25T08:11:12;9.30;1.00
64396;DHT22;50717;53.360;6.290;2024-03-25T08:13:38;8.50;1.00
64396;DHT22;50717;53.360;6.290;2024-03-25T08:16:04;8.40;1.00
64396;DHT22;50717;53.360;6.290;2024-03-25T08:18:30;8.60;1.00
64396;DHT22;50717;53.360;6.290;2024-03-25T08:20:55;8.80;1.00
64396;DHT22;50717;53.360;6.290;2024-03-25T08:23:21;9.10;1.00
64396;DHT22;50717;53.360;6.290;2024-03-25T08:25:46;8.70;1.00
64396;DHT22;50717;53.360;6.290;2024-03-25T08:28:12;9.20;1.00
64396;DHT22;50717;53.360;6.290;2024-03-25T08:30:38;8.80;1.00
64396;DHT22;50717;53.360;6.290;2024-03-25T08:33:03;8.80;1.00
64396;DHT22;50717;53.360;6.290;2024-03-25T08:35:29;9.00;1.00
64396;DHT22;50717;53.360;6.290;2024-03-25T08:37:55;9.10;1.00
64396;DHT22;50717;53.360;6.290;2024-03-25T08:40:20;9.10;1.00
64396;DHT22;50717;53.360;6.290;2024-03-25T08:42:46;9.40;1.00
64396;DHT22;50717;53.360;6.290;2024-03-25T08:45:12;9.20;1.00
64396;DHT22;50717;53.360;6.290;2024-03-25T08:47:37;9.50;1.00
64396;DHT22;50717;53.360;6.290;2024-03-25T08:50:04;9.30;1.00
64396;DHT22;50717;53.360;6.290;2024-03-25T08:52:30;9.60;1.00
64396;DHT22;50717;53.360;6.290;2024-03-25T08:54:55;10.60;1.00
64396;DHT22;50717;53.360;6.290;2024-03-25T08:57:21;10.20;1.00
64396;DHT22;50717;53.360;6.290;2024-03-25T08:59:47;10.40;1.00
64396;DHT22;50717;53.360;6.290;2024-03-25T09:02:13;10.30;99.90
64396;DHT22;50717;53.360;6.290;2024-03-25T09:04:39;10.60;1.00
64396;DHT22;50717;53.360;6.290;2024-03-25T09:07:04;11.40;1.00
64396;DHT22;50717;53.360;6.290;2024-03-25T09:09:30;10.10;1.00
64396;DHT22;50717;53.360;6.290;2024-03-25T09:12:14;10.20;1.00
64396;DHT22;50717;53.360;6.290;2024-03-25T09:14:40;10.30;1.00
64396;DHT22;50717;53.360;6.290;2024-03-25T09:17:05;9.50;1.00
64396;DHT22;50717;53.360;6.290;2024-03-25T09:19:31;9.50;1.00
64396;DHT22;50717;53.360;6.290;2024-03-25T09:21:57;8.20;1.00
64396;DHT22;50717;53.360;6.290;2024-03-25T09:24:22;8.10;1.00
64396;DHT22;50717;53.360;6.290;2024-03-25T09:26:51;7.90;1.00
64396;DHT22;50717;53.360;6.290;2024-03-25T09:29:17;8.30;4.50
64396;DHT22;50717;53.360;6.290;2024-03-25T09:31:42;8.20;14.10
64396;DHT22;50717;53.360;6.290;2024-03-25T09:34:08;9.50;14.80
64396;DHT22;50717;53.360;6.290;2024-03-25T09:36:33;8.40;22.30
64396;DHT22;50717;53.360;6.290;2024-03-25T09:38:59;8.70;30.40
64396;DHT22;50717;53.360;6.290;2024-03-25T09:41:28;9.50;45.50
64396;DHT22;50717;53.360;6.290;2024-03-25T09:43:54;9.30;57.70
64396;DHT22;50717;53.360;6.290;2024-03-25T09:46:23;9.00;54.10
64396;DHT22;50717;53.360;6.290;2024-03-25T09:48:52;9.50;47.10
64396;DHT22;50717;53.360;6.290;2024-03-25T09:51:19;9.30;50.90
64396;DHT22;50717;53.360;6.290;2024-03-25T09:53:45;9.30;38.80
64396;DHT22;50717;53.360;6.290;2024-03-25T09:56:12;9.60;17.90
64396;DHT22;50717;53.360;6.290;2024-03-25T09:58:39;9.50;12.00
64396;DHT22;50717;53.360;6.290;2024-03-25T10:01:05;9.50;8.50
64396;DHT22;50717;53.360;6.290;2024-03-25T10:03:31;10.00;2.90
64396;DHT22;50717;53.360;6.290;2024-03-25T10:05:56;9.40;1.00
64396;DHT22;50717;53.360;6.290;2024-03-25T10:08:22;9.90;1.00
64396;DHT22;50717;53.360;6.290;2024-03-25T10:10:48;10.10;1.00
64396;DHT22;50717;53.360;6.290;2024-03-25T10:13:15;10.20;1.00
64396;DHT22;50717;53.360;6.290;2024-03-25T10:15:41;9.70;1.00
64396;DHT22;50717;53.360;6.290;2024-03-25T10:18:06;10.20;1.00
64396;DHT22;50717;53.360;6.290;2024-03-25T10:20:33;10.20;1.00
64396;DHT22;50717;53.360;6.290;2024-03-25T10:23:00;10.10;1.00
64396;DHT22;50717;53.360;6.290;2024-03-25T10:25:30;10.50;1.00
64396;DHT22;50717;53.360;6.290;2024-03-25T10:28:00;10.20;1.00
64396;DHT22;50717;53.360;6.290;2024-03-25T10:30:29;10.70;1.00
64396;DHT22;50717;53.360;6.290;2024-03-25T10:35:26;10.50;1.00
64396;DHT22;50717;53.360;6.290;2024-03-25T10:37:59;10.60;1.00
64396;DHT22;50717;53.360;6.290;2024-03-25T10:40:30;10.20;1.00
64396;DHT22;50717;53.360;6.290;2024-03-25T10:43:04;10.50;1.00
64396;DHT22;50717;53.360;6.290;2024-03-25T10:45:34;10.90;1.00
64396;DHT22;50717;53.360;6.290;2024-03-25T10:48:15;10.70;1.00
64396;DHT22;50717;53.360;6.290;2024-03-25T10:50:43;10.90;1.00
64396;DHT22;50717;53.360;6.290;2024-03-25T10:53:10;11.10;5.80
64396;DHT22;50717;53.360;6.290;2024-03-25T10:55:37;11.30;1.00
64396;DHT22;50717;53.360;6.290;2024-03-25T10:58:04;10.60;1.00
64396;DHT22;50717;53.360;6.290;2024-03-25T11:00:30;10.70;1.00
64396;DHT22;50717;53.360;6.290;2024-03-25T11:02:57;10.30;1.00
64396;DHT22;50717;53.360;6.290;2024-03-25T11:05:24;10.30;1.00
64396;DHT22;50717;53.360;6.290;2024-03-25T11:07:50;10.70;1.00
64396;DHT22;50717;53.360;6.290;2024-03-25T11:10:16;10.20;1.00
64396;DHT22;50717;53.360;6.290;2024-03-25T11:12:42;11.50;99.90
64396;DHT22;50717;53.360;6.290;2024-03-25T11:15:08;10.80;1.00
64396;DHT22;50717;53.360;6.290;2024-03-25T11:17:35;10.90;1.00
64396;DHT22;50717;53.360;6.290;2024-03-25T11:20:12;10.70;1.00
64396;DHT22;50717;53.360;6.290;2024-03-25T11:22:52;11.30;1.00
64396;DHT22;50717;53.360;6.290;2024-03-25T11:25:21;10.90;1.00
64396;DHT22;50717;53.360;6.290;2024-03-25T11:27:47;10.80;1.00
64396;DHT22;50717;53.360;6.290;2024-03-25T11:30:16;10.70;1.00
64396;DHT22;50717;53.360;6.290;2024-03-25T11:32:55;11.30;1.00
64396;DHT22;50717;53.360;6.290;2024-03-25T11:35:21;12.10;1.00
64396;DHT22;50717;53.360;6.290;2024-03-25T11:37:46;12.50;99.90
64396;DHT22;50717;53.360;6.290;2024-03-25T11:40:13;11.30;99.90
64396;DHT22;50717;53.360;6.290;2024-03-25T11:42:43;11.40;99.90
64396;DHT22;50717;53.360;6.290;2024-03-25T11:45:19;11.10;99.90
64396;DHT22;50717;53.360;6.290;2024-03-25T11:47:46;11.20;99.90
64396;DHT22;50717;53.360;6.290;2024-03-25T11:50:14;11.10;1.00
64396;DHT22;50717;53.360;6.290;2024-03-25T11:52:40;11.40;1.00
64396;DHT22;50717;53.360;6.290;2024-03-25T11:55:06;11.20;1.00
64396;DHT22;50717;53.360;6.290;2024-03-25T11:57:35;11.60;1.00
64396;DHT22;50717;53.360;6.290;2024-03-25T12:00:01;11.50;1.00
64396;DHT22;50717;53.360;6.290;2024-03-25T12:02:28;11.40;1.00
64396;DHT22;50717;53.360;6.290;2024-03-25T12:04:54;11.60;1.00
64396;DHT22;50717;53.360;6.290;2024-03-25T12:07:21;11.40;1.00
64396;DHT22;50717;53.360;6.290;2024-03-25T12:09:46;11.80;1.00
64396;DHT22;50717;53.360;6.290;2024-03-25T12:12:32;11.40;1.00
64396;DHT22;50717;53.360;6.290;2024-03-25T12:14:58;11.70;1.00
64396;DHT22;50717;53.360;6.290;2024-03-25T12:17:24;11.40;1.00
64396;DHT22;50717;53.360;6.290;2024-03-25T12:20:06;11.30;99.90
64396;DHT22;50717;53.360;6.290;2024-03-25T12:22:39;11.40;1.00
64396;DHT22;50717;53.360;6.290;2024-03-25T12:25:07;12.10;1.00
64396;DHT22;50717;53.360;6.290;2024-03-25T12:27:33;11.90;1.00
64396;DHT22;50717;53.360;6.290;2024-03-25T12:30:04;11.90;1.00
64396;DHT22;50717;53.360;6.290;2024-03-25T12:32:41;11.70;1.00
64396;DHT22;50717;53.360;6.290;2024-03-25T12:37:36;12.00;1.00
64396;DHT22;50717;53.360;6.290;2024-03-25T12:40:03;12.60;1.00
64396;DHT22;50717;53.360;6.290;2024-03-25T12:42:30;12.40;1.00
64396;DHT22;50717;53.360;6.290;2024-03-25T12:44:56;12.40;99.90
64396;DHT22;50717;53.360;6.290;2024-03-25T12:47:22;12.40;1.00
64396;DHT22;50717;53.360;6.290;2024-03-25T12:49:47;12.50;1.00
64396;DHT22;50717;53.360;6.290;2024-03-25T12:52:13;12.50;1.00
64396;DHT22;50717;53.360;6.290;2024-03-25T12:54:39;12.70;1.00
64396;DHT22;50717;53.360;6.290;2024-03-25T12:57:07;13.00;1.00
64396;DHT22;50717;53.360;6.290;2024-03-25T12:59:32;12.70;1.00
64396;DHT22;50717;53.360;6.290;2024-03-25T13:01:59;12.80;1.00
64396;DHT22;50717;53.360;6.290;2024-03-25T13:04:25;12.80;1.00
64396;DHT22;50717;53.360;6.290;2024-03-25T13:06:51;12.70;1.00
64396;DHT22;50717;53.360;6.290;2024-03-25T13:09:16;13.00;1.00
64396;DHT22;50717;53.360;6.290;2024-03-25T13:11:42;12.60;99.90
64396;DHT22;50717;53.360;6.290;2024-03-25T13:14:10;13.10;99.90
64396;DHT22;50717;53.360;6.290;2024-03-25T13:16:36;13.20;99.90
64396;DHT22;50717;53.360;6.290;2024-03-25T13:19:02;13.10;99.90
64396;DHT22;50717;53.360;6.290;2024-03-25T13:21:27;14.70;1.00
64396;DHT22;50717;53.360;6.290;2024-03-25T13:23:53;12.80;1.00
64396;DHT22;50717;53.360;6.290;2024-03-25T13:26:18;12.40;1.00
64396;DHT22;50717;53.360;6.290;2024-03-25T13:28:44;12.70;1.00
64396;DHT22;50717;53.360;6.290;2024-03-25T13:31:10;12.60;99.90
64396;DHT22;50717;53.360;6.290;2024-03-25T13:33:36;12.90;1.00
64396;DHT22;50717;53.360;6.290;2024-03-25T13:36:03;12.60;99.90
64396;DHT22;50717;53.360;6.290;2024-03-25T13:38:29;12.60;99.90
64396;DHT22;50717;53.360;6.290;2024-03-25T13:40:55;12.90;99.90
64396;DHT22;50717;53.360;6.290;2024-03-25T13:43:20;12.80;99.90
64396;DHT22;50717;53.360;6.290;2024-03-25T13:45:47;12.40;99.90
64396;DHT22;50717;53.360;6.290;2024-03-25T13:48:14;12.40;99.90
64396;DHT22;50717;53.360;6.290;2024-03-25T13:50:40;12.90;99.90
64396;DHT22;50717;53.360;6.290;2024-03-25T13:53:07;13.20;99.90
64396;DHT22;50717;53.360;6.290;2024-03-25T13:55:33;12.90;99.90
64396;DHT22;50717;53.360;6.290;2024-03-25T13:57:58;13.10;99.90
64396;DHT22;50717;53.360;6.290;2024-03-25T14:00:24;13.30;99.90
64396;DHT22;50717;53.360;6.290;2024-03-25T14:02:52;13.30;99.90
64396;DHT22;50717;53.360;6.290;2024-03-25T14:05:18;13.80;99.90
64396;DHT22;50717;53.360;6.290;2024-03-25T14:07:44;13.80;99.90
64396;DHT22;50717;53.360;6.290;2024-03-25T14:10:09;14.00;99.90
64396;DHT22;50717;53.360;6.290;2024-03-25T14:12:37;13.60;99.90
64396;DHT22;50717;53.360;6.290;2024-03-25T14:15:03;14.10;99.90
64396;DHT22;50717;53.360;6.290;2024-03-25T14:17:28;14.70;99.90
64396;DHT22;50717;53.360;6.290;2024-03-25T14:19:56;15.20;99.90
64396;DHT22;50717;53.360;6.290;2024-03-25T14:22:22;15.20;99.90
64396;DHT22;50717;53.360;6.290;2024-03-25T14:24:48;14.80;99.90
64396;DHT22;50717;53.360;6.290;2024-03-25T14:27:14;14.60;99.90
64396;DHT22;50717;53.360;6.290;2024-03-25T14:29:40;14.90;99.90
64396;DHT22;50717;53.360;6.290;2024-03-25T14:32:07;14.70;99.90
64396;DHT22;50717;53.360;6.290;2024-03-25T14:34:33;14.70;99.90
64396;DHT22;50717;53.360;6.290;2024-03-25T14:36:58;14.80;99.90
64396;DHT22;50717;53.360;6.290;2024-03-25T14:39:27;15.20;99.90
64396;DHT22;50717;53.360;6.290;2024-03-25T14:41:53;16.00;99.90
64396;DHT22;50717;53.360;6.290;2024-03-25T14:44:19;16.00;99.90
64396;DHT22;50717;53.360;6.290;2024-03-25T14:46:44;16.50;99.90
64396;DHT22;50717;53.360;6.290;2024-03-25T14:49:10;16.40;99.90
64396;DHT22;50717;53.360;6.290;2024-03-25T14:51:35;16.40;99.90
64396;DHT22;50717;53.360;6.290;2024-03-25T14:54:02;16.00;99.90
64396;DHT22;50717;53.360;6.290;2024-03-25T14:56:29;15.60;99.90
64396;DHT22;50717;53.360;6.290;2024-03-25T14:58:55;15.00;99.90
64396;DHT22;50717;53.360;6.290;2024-03-25T15:01:20;15.20;99.90
64396;DHT22;50717;53.360;6.290;2024-03-25T15:03:46;14.70;99.90
64396;DHT22;50717;53.360;6.290;2024-03-25T15:06:12;14.50;99.90
64396;DHT22;50717;53.360;6.290;2024-03-25T15:08:38;13.90;99.90
64396;DHT22;50717;53.360;6.290;2024-03-25T15:11:05;13.30;99.90
64396;DHT22;50717;53.360;6.290;2024-03-25T15:13:31;12.90;99.90
64396;DHT22;50717;53.360;6.290;2024-03-25T15:15:57;12.80;99.90
64396;DHT22;50717;53.360;6.290;2024-03-25T15:18:23;13.10;99.90
64396;DHT22;50717;53.360;6.290;2024-03-25T15:21:02;13.60;99.90
64396;DHT22;50717;53.360;6.290;2024-03-25T15:23:29;14.00;99.90
64396;DHT22;50717;53.360;6.290;2024-03-25T15:25:55;13.50;99.90
64396;DHT22;50717;53.360;6.290;2024-03-25T15:28:21;13.30;99.90
64396;DHT22;50717;53.360;6.290;2024-03-25T15:30:47;13.00;99.90
64396;DHT22;50717;53.360;6.290;2024-03-25T15:33:13;12.60;99.90
64396;DHT22;50717;53.360;6.290;2024-03-25T15:35:39;12.50;99.90
64396;DHT22;50717;53.360;6.290;2024-03-25T15:38:04;12.80;99.90
64396;DHT22;50717;53.360;6.290;2024-03-25T15:40:30;12.70;99.90
64396;DHT22;50717;53.360;6.290;2024-03-25T15:42:56;12.90;99.90
64396;DHT22;50717;53.360;6.290;2024-03-25T15:45:21;13.10;99.90
64396;DHT22;50717;53.360;6.290;2024-03-25T15:47:50;12.70;99.90
64396;DHT22;50717;53.360;6.290;2024-03-25T15:50:16;13.20;99.90
64396;DHT22;50717;53.360;6.290;2024-03-25T15:52:41;14.10;99.90
64396;DHT22;50717;53.360;6.290;2024-03-25T15:55:07;14.40;99.90